createdAt,value
2018-05-29T00:00:34.673Z,4.3
2018-05-29T00:01:34.751Z,4.1
2018-05-29T00:02:34.595Z,3.9
2018-05-29T00:03:34.977Z,4.0
2018-05-29T00:04:35.064Z,4.1
2018-05-29T00:05:34.764Z,4.2
2018-05-29T00:06:34.630Z,4.6
2018-05-29T00:07:34.960Z,4.5
2018-05-29T00:08:34.615Z,4.2
2018-05-29T00:09:35.089Z,4.2
2018-05-29T00:10:34.968Z,4.1
2018-05-29T00:11:35.064Z,4.1
2018-05-29T00:12:34.729Z,4.1
2018-05-29T00:13:34.636Z,4.1
2018-05-29T00:14:34.955Z,4.0
2018-05-29T00:15:34.736Z,4.2
2018-05-29T00:16:34.692Z,4.3
2018-05-29T00:17:34.763Z,4.2
2018-05-29T00:31:34.384Z,4.4
2018-05-29T00:31:46.976Z,4.4
2018-05-29T00:32:48.307Z,4.2
2018-05-29T00:33:48.318Z,4.5
2018-05-29T00:34:48.128Z,4.1
2018-05-29T00:35:48.076Z,4.5
2018-05-29T00:36:48.075Z,4.3
2018-05-29T00:37:48.001Z,4.2
2018-05-29T00:38:48.079Z,4.4
2018-05-29T00:41:00.779Z,4.3
2018-05-29T00:42:00.817Z,4.5
2018-05-29T00:43:00.964Z,4.6
2018-05-29T00:44:00.944Z,4.8
2018-05-29T00:45:00.949Z,4.4
2018-05-29T00:46:01.645Z,4.4
2018-05-29T00:47:00.912Z,4.6
2018-05-29T00:48:00.997Z,4.5
2018-05-29T00:49:00.993Z,4.3
2018-05-29T00:50:01.001Z,4.1
2018-05-29T00:51:03.165Z,4.2
2018-05-29T00:52:00.769Z,4.1
2018-05-29T00:53:01.119Z,4.3
2018-05-29T00:54:01.102Z,4.4
2018-05-29T00:55:01.141Z,4.4
2018-05-29T00:56:00.877Z,4.7
2018-05-29T00:57:00.824Z,4.2
2018-05-29T00:58:00.882Z,5.0
2018-05-29T00:59:00.804Z,4.7
2018-05-29T01:00:01.129Z,4.5
2018-05-29T01:01:16.866Z,4.0
2018-05-29T01:02:00.926Z,4.6
2018-05-29T01:03:00.946Z,4.4
2018-05-29T01:04:01.620Z,4.1
2018-05-29T01:05:00.970Z,4.4
2018-05-29T01:06:00.902Z,4.4
2018-05-29T01:07:00.833Z,4.5
2018-05-29T01:08:00.985Z,4.0
2018-05-29T01:09:00.943Z,4.2
2018-05-29T01:10:01.388Z,4.2
2018-05-29T01:11:03.965Z,4.4
2018-05-29T01:12:01.263Z,4.6
2018-05-29T01:13:00.952Z,4.8
2018-05-29T01:14:00.953Z,4.5
2018-05-29T01:15:00.977Z,4.8
2018-05-29T01:16:01.270Z,4.9
2018-05-29T01:17:00.882Z,4.6
2018-05-29T01:18:01.248Z,4.8
2018-05-29T01:19:01.065Z,4.9
2018-05-29T01:20:01.091Z,4.8
2018-05-29T01:21:01.072Z,4.6
2018-05-29T01:22:01.001Z,4.9
2018-05-29T01:23:01.018Z,4.6
2018-05-29T01:24:00.936Z,4.8
2018-05-29T01:25:01.057Z,4.9
2018-05-29T01:26:00.908Z,4.6
2018-05-29T01:27:00.971Z,4.9
2018-05-29T01:28:00.948Z,4.5
2018-05-29T01:29:00.987Z,4.4
2018-05-29T01:30:00.902Z,4.8
2018-05-29T01:31:01.220Z,4.8
2018-05-29T01:32:01.739Z,4.8
2018-05-29T01:33:01.047Z,5.0
2018-05-29T01:34:01.155Z,4.7
2018-05-29T01:35:01.075Z,4.9
2018-05-29T01:36:02.006Z,5.2
2018-05-29T01:37:00.933Z,4.9
2018-05-29T01:38:10.995Z,4.9
2018-05-29T01:39:00.980Z,5.1
2018-05-29T01:40:01.046Z,4.9
2018-05-29T01:41:01.009Z,4.8
2018-05-29T01:42:01.017Z,4.7
2018-05-29T01:43:00.989Z,4.8
2018-05-29T01:44:00.991Z,4.9
2018-05-29T01:45:01.071Z,4.9
2018-05-29T01:46:00.917Z,5.0
2018-05-29T01:47:01.066Z,5.1
2018-05-29T01:50:07.690Z,4.7
2018-05-29T01:51:07.597Z,5.0
2018-05-29T01:52:07.580Z,5.0
2018-05-29T01:53:07.853Z,4.8
2018-05-29T01:54:07.579Z,4.7
2018-05-29T01:55:08.274Z,5.2
2018-05-29T01:56:07.683Z,5.4
2018-05-29T01:57:07.611Z,4.8
2018-05-29T01:58:07.597Z,5.0
2018-05-29T01:59:07.660Z,4.9
2018-05-29T02:00:07.931Z,4.8
2018-05-29T02:01:07.888Z,4.9
2018-05-29T02:02:07.652Z,4.9
2018-05-29T02:03:07.966Z,4.9
2018-05-29T02:04:07.639Z,5.2
2018-05-29T02:05:08.220Z,5.2
2018-05-29T02:06:07.525Z,5.1
2018-05-29T02:07:07.802Z,4.9
2018-05-29T02:08:07.726Z,4.8
2018-05-29T02:09:07.780Z,5.1
2018-05-29T02:10:07.669Z,5.2
2018-05-29T02:11:07.605Z,5.2
2018-05-29T02:12:07.756Z,4.8
2018-05-29T02:13:07.732Z,5.4
2018-05-29T02:14:07.684Z,4.8
2018-05-29T02:15:08.142Z,5.1
2018-05-29T02:16:07.860Z,5.0
2018-05-29T02:23:40.896Z,5.0
2018-05-29T02:23:52.331Z,4.8
2018-05-29T02:24:52.475Z,4.9
2018-05-29T02:25:53.007Z,4.9
2018-05-29T02:26:52.332Z,5.0
2018-05-29T02:27:52.365Z,5.0
2018-05-29T02:28:52.366Z,5.1
2018-05-29T02:29:52.605Z,4.6
2018-05-29T02:30:52.753Z,4.9
2018-05-29T02:31:52.373Z,4.8
2018-05-29T02:32:52.607Z,5.0
2018-05-29T02:33:52.373Z,5.0
2018-05-29T02:34:52.477Z,4.8
2018-05-29T02:35:52.726Z,5.1
2018-05-29T02:36:52.422Z,4.9
2018-05-29T02:37:52.689Z,4.8
2018-05-29T02:38:52.346Z,4.7
2018-05-29T02:39:52.303Z,5.1
2018-05-29T02:40:52.364Z,5.2
2018-05-29T02:41:52.645Z,5.1
2018-05-29T02:42:53.577Z,4.4
2018-05-29T02:43:52.440Z,4.0
2018-05-29T02:44:52.359Z,4.2
2018-05-29T02:45:52.399Z,4.3
2018-05-29T02:46:53.335Z,4.1
2018-05-29T02:47:52.314Z,4.0
2018-05-29T02:48:52.388Z,4.1
2018-05-29T02:49:52.378Z,4.4
2018-05-29T02:59:01.080Z,4.3
2018-05-29T02:59:09.996Z,4.4
2018-05-29T03:00:09.682Z,4.2
2018-05-29T03:01:10.014Z,4.2
2018-05-29T03:02:09.679Z,4.4
2018-05-29T03:03:09.770Z,4.1
2018-05-29T03:04:10.139Z,4.2
2018-05-29T03:05:09.657Z,4.5
2018-05-29T03:06:09.682Z,4.4
2018-05-29T03:07:09.648Z,4.5
2018-05-29T03:09:22.907Z,4.5
2018-05-29T03:10:22.834Z,4.6
2018-05-29T03:11:22.880Z,4.3
2018-05-29T03:12:22.890Z,4.7
2018-05-29T03:13:22.861Z,4.7
2018-05-29T03:14:23.799Z,4.4
2018-05-29T03:15:22.880Z,4.8
2018-05-29T03:16:22.979Z,4.4
2018-05-29T03:17:23.397Z,4.6
2018-05-29T03:18:23.127Z,4.2
2018-05-29T03:19:23.646Z,4.7
2018-05-29T03:20:22.934Z,4.1
2018-05-29T03:21:23.409Z,4.4
2018-05-29T03:22:23.301Z,4.5
2018-05-29T03:23:22.853Z,4.3
2018-05-29T03:24:23.227Z,4.5
2018-05-29T03:25:23.187Z,4.2
2018-05-29T03:26:24.060Z,4.3
2018-05-29T03:27:22.978Z,4.3
2018-05-29T03:28:23.419Z,4.4
2018-05-29T03:29:22.920Z,4.7
2018-05-29T03:30:22.924Z,4.8
2018-05-29T03:31:23.261Z,4.5
2018-05-29T03:32:22.935Z,5.0
2018-05-29T03:33:23.204Z,4.6
2018-05-29T03:34:23.031Z,4.4
2018-05-29T03:35:23.233Z,4.6
2018-05-29T03:36:22.882Z,4.2
2018-05-29T03:37:22.972Z,4.3
2018-05-29T03:38:22.993Z,4.3
2018-05-29T03:39:22.960Z,4.6
2018-05-29T03:40:22.889Z,4.7
2018-05-29T03:41:23.669Z,4.7
2018-05-29T03:42:22.969Z,4.7
2018-05-29T03:43:22.940Z,4.7
2018-05-29T03:44:22.874Z,5.0
2018-05-29T03:45:22.969Z,5.0
2018-05-29T03:46:22.891Z,5.0
2018-05-29T03:47:22.966Z,4.7
2018-05-29T03:48:23.277Z,5.1
2018-05-29T03:49:22.952Z,4.9
2018-05-29T03:50:22.928Z,5.2
2018-05-29T03:51:23.307Z,5.0
2018-05-29T03:52:23.133Z,5.3
2018-05-29T03:53:23.602Z,5.4
2018-05-29T03:54:22.968Z,5.2
2018-05-29T03:55:23.031Z,5.2
2018-05-29T03:56:22.924Z,4.8
2018-05-29T03:57:22.949Z,4.9
2018-05-29T03:58:22.997Z,5.0
2018-05-29T03:59:23.252Z,5.1
2018-05-29T04:00:23.180Z,5.1
2018-05-29T04:01:22.954Z,5.2
2018-05-29T04:02:22.939Z,5.5
2018-05-29T04:03:23.638Z,5.3
2018-05-29T04:04:23.218Z,5.2
2018-05-29T04:05:23.121Z,5.0
2018-05-29T04:06:22.960Z,5.0
2018-05-29T04:07:22.839Z,5.1
2018-05-29T04:08:22.889Z,5.1
2018-05-29T04:09:23.234Z,5.1
2018-05-29T04:10:22.929Z,5.0
2018-05-29T04:11:22.917Z,5.3
2018-05-29T04:12:22.985Z,5.2
2018-05-29T04:13:23.511Z,5.2
2018-05-29T04:14:22.948Z,5.3
2018-05-29T04:15:23.008Z,5.2
2018-05-29T04:16:23.096Z,4.9
2018-05-29T04:17:24.008Z,4.8
2018-05-29T04:18:23.422Z,4.8
2018-05-29T04:19:22.966Z,5.0
2018-05-29T04:20:23.076Z,4.9
2018-05-29T04:21:23.128Z,5.4
2018-05-29T04:22:23.015Z,5.1
2018-05-29T04:23:23.063Z,4.9
2018-05-29T04:24:24.194Z,5.3
2018-05-29T04:25:22.993Z,5.2
2018-05-29T04:26:23.040Z,5.0
2018-05-29T04:27:23.085Z,5.1
2018-05-29T04:28:22.974Z,5.4
2018-05-29T04:29:23.070Z,5.0
2018-05-29T04:30:23.075Z,5.3
2018-05-29T04:35:46.471Z,4.9
2018-05-29T04:35:56.661Z,5.3
2018-05-29T04:36:56.365Z,5.4
2018-05-29T04:37:56.041Z,5.1
2018-05-29T04:38:56.054Z,5.1
2018-05-29T04:39:55.964Z,5.0
2018-05-29T04:40:56.184Z,5.0
2018-05-29T04:41:55.963Z,5.1
2018-05-29T04:42:56.044Z,5.2
2018-05-29T04:45:09.204Z,5.5
2018-05-29T04:46:09.158Z,5.0
2018-05-29T04:47:09.278Z,5.1
2018-05-29T04:48:09.207Z,5.5
2018-05-29T04:49:09.258Z,5.3
2018-05-29T04:50:09.925Z,5.3
2018-05-29T04:51:09.210Z,5.3
2018-05-29T04:52:09.199Z,5.4
2018-05-29T04:53:09.186Z,5.4
2018-05-29T04:54:09.089Z,5.2
2018-05-29T04:55:09.143Z,5.0
2018-05-29T04:56:09.125Z,4.7
2018-05-29T04:57:09.142Z,5.1
2018-05-29T04:58:09.126Z,5.3
2018-05-29T04:59:09.445Z,5.3
2018-05-29T05:00:09.212Z,5.2
2018-05-29T05:01:09.109Z,5.0
2018-05-29T05:02:09.493Z,5.2
2018-05-29T05:03:09.372Z,5.4
2018-05-29T05:05:20.880Z,5.6
2018-05-29T05:06:20.910Z,5.0
2018-05-29T05:07:21.156Z,5.5
2018-05-29T05:08:20.838Z,5.5
2018-05-29T05:09:22.403Z,5.5
2018-05-29T05:10:21.418Z,5.7
2018-05-29T05:11:20.722Z,5.8
2018-05-29T05:12:20.792Z,5.5
2018-05-29T05:13:20.877Z,5.3
2018-05-29T05:14:21.223Z,5.6
2018-05-29T05:15:20.832Z,5.7
2018-05-29T05:16:20.944Z,5.7
2018-05-29T05:17:20.866Z,5.7
2018-05-29T05:18:20.935Z,5.4
2018-05-29T05:19:20.841Z,5.6
2018-05-29T05:20:21.438Z,5.5
2018-05-29T05:21:20.841Z,5.4
2018-05-29T05:22:21.042Z,5.4
2018-05-29T05:23:20.770Z,5.9
2018-05-29T05:24:25.164Z,5.5
2018-05-29T05:25:21.352Z,5.8
2018-05-29T05:26:21.567Z,5.8
2018-05-29T05:27:20.915Z,5.8
2018-05-29T05:28:20.807Z,5.8
2018-05-29T05:29:20.884Z,6.0
2018-05-29T05:30:20.788Z,6.1
2018-05-29T05:31:21.425Z,5.8
2018-05-29T05:32:20.936Z,5.9
2018-05-29T05:33:21.153Z,5.7
2018-05-29T05:34:20.860Z,5.8
2018-05-29T05:35:20.991Z,5.6
2018-05-29T05:36:20.908Z,6.3
2018-05-29T05:37:21.659Z,6.0
2018-05-29T05:38:21.179Z,6.4
2018-05-29T05:39:21.310Z,6.3
2018-05-29T05:40:21.020Z,5.9
2018-05-29T05:41:21.998Z,6.3
2018-05-29T05:42:21.011Z,6.2
2018-05-29T05:43:20.975Z,6.4
2018-05-29T05:44:21.906Z,6.5
2018-05-29T05:45:20.911Z,6.7
2018-05-29T05:46:21.191Z,6.4
2018-05-29T05:47:20.908Z,6.2
2018-05-29T05:48:21.557Z,6.5
2018-05-29T05:49:21.620Z,6.7
2018-05-29T05:50:21.494Z,6.6
2018-05-29T05:51:20.948Z,6.7
2018-05-29T05:52:20.971Z,6.7
2018-05-29T05:53:20.877Z,6.9
2018-05-29T05:54:20.920Z,6.9
2018-05-29T05:55:20.996Z,6.7
2018-05-29T05:56:21.671Z,6.6
2018-05-29T05:57:21.649Z,6.8
2018-05-29T05:58:21.842Z,7.0
2018-05-29T05:59:20.852Z,7.0
2018-05-29T06:00:20.994Z,6.5
2018-05-29T06:01:21.028Z,6.7
2018-05-29T06:02:20.996Z,7.0
2018-05-29T06:03:20.958Z,6.7
2018-05-29T06:04:21.029Z,7.0
2018-05-29T06:05:21.023Z,7.3
2018-05-29T06:06:37.468Z,7.2
2018-05-29T06:07:21.012Z,7.0
2018-05-29T06:08:20.891Z,7.5
2018-05-29T06:09:21.166Z,7.4
2018-05-29T06:10:20.966Z,7.6
2018-05-29T06:11:20.960Z,6.8
2018-05-29T06:12:20.961Z,7.3
2018-05-29T06:13:21.111Z,7.2
2018-05-29T06:14:20.864Z,7.5
2018-05-29T06:15:21.242Z,7.1
2018-05-29T06:16:21.701Z,7.6
2018-05-29T06:17:21.101Z,7.4
2018-05-29T06:18:21.053Z,7.0
2018-05-29T06:19:20.988Z,7.1
2018-05-29T06:20:20.917Z,7.2
2018-05-29T06:21:21.516Z,7.6
2018-05-29T06:22:21.031Z,7.4
2018-05-29T06:23:21.164Z,7.4
2018-05-29T06:24:20.939Z,7.3
2018-05-29T06:25:20.977Z,7.8
2018-05-29T06:28:02.191Z,8.6
2018-05-29T06:28:09.750Z,8.6
2018-05-29T06:29:09.684Z,8.7
2018-05-29T06:30:10.202Z,8.3
2018-05-29T06:31:10.552Z,8.4
2018-05-29T06:32:09.997Z,8.8
2018-05-29T06:33:09.664Z,8.7
2018-05-29T06:34:09.731Z,8.6
2018-05-29T06:35:09.927Z,8.8
2018-05-29T06:36:09.708Z,8.8
2018-05-29T06:39:18.562Z,8.7
2018-05-29T06:40:19.630Z,8.6
2018-05-29T06:41:19.963Z,8.5
2018-05-29T06:42:19.711Z,8.0
2018-05-29T06:43:19.931Z,9.0
2018-05-29T06:44:19.681Z,8.0
2018-05-29T06:45:19.682Z,8.1
2018-05-29T06:46:19.966Z,8.1
2018-05-29T06:47:19.746Z,8.3
2018-05-29T06:48:19.732Z,8.1
2018-05-29T06:49:20.565Z,8.5
2018-05-29T06:50:19.721Z,8.4
2018-05-29T06:51:20.002Z,8.5
2018-05-29T06:52:19.708Z,8.2
2018-05-29T06:53:19.708Z,8.5
2018-05-29T06:54:19.630Z,8.5
2018-05-29T06:55:19.752Z,8.2
2018-05-29T06:56:19.654Z,8.1
2018-05-29T06:57:19.741Z,7.9
2018-05-29T06:58:19.707Z,7.8
2018-05-29T06:59:19.647Z,7.8
2018-05-29T07:00:19.719Z,8.2
2018-05-29T07:01:19.683Z,7.7
2018-05-29T07:02:20.233Z,7.5
2018-05-29T07:03:19.764Z,7.8
2018-05-29T07:04:19.800Z,7.4
2018-05-29T07:05:19.677Z,7.3
2018-05-29T07:06:20.024Z,7.9
2018-05-29T07:07:19.706Z,7.7
2018-05-29T07:08:19.807Z,7.8
2018-05-29T07:09:30.201Z,8.0
2018-05-29T07:10:19.649Z,7.1
2018-05-29T07:11:19.912Z,7.1
2018-05-29T07:12:19.589Z,6.8
2018-05-29T07:13:20.339Z,7.0
2018-05-29T07:14:19.692Z,7.0
2018-05-29T07:15:20.265Z,7.1
2018-05-29T07:16:20.675Z,7.1
2018-05-29T07:17:20.522Z,7.3
2018-05-29T07:18:19.689Z,7.0
2018-05-29T07:20:12.357Z,6.8
2018-05-29T07:20:20.447Z,6.8
2018-05-29T07:21:19.680Z,6.5
2018-05-29T07:22:20.504Z,5.9
2018-05-29T07:23:19.826Z,6.4
2018-05-29T07:24:19.895Z,6.1
2018-05-29T07:25:20.490Z,5.6
2018-05-29T07:26:20.299Z,5.9
2018-05-29T07:27:20.499Z,6.2
2018-05-29T07:28:19.915Z,5.6
2018-05-29T07:29:20.016Z,5.6
2018-05-29T07:30:20.150Z,5.6
2018-05-29T07:31:20.113Z,5.8
2018-05-29T07:32:20.103Z,5.2
2018-05-29T07:33:20.033Z,5.0
2018-05-29T07:34:20.067Z,5.1
2018-05-29T07:35:20.196Z,5.4
2018-05-29T07:36:20.137Z,5.3
2018-05-29T07:37:20.117Z,4.8
2018-05-29T07:38:21.032Z,5.0
2018-05-29T07:39:20.576Z,4.8
2018-05-29T07:40:20.056Z,5.1
2018-05-29T07:41:20.133Z,4.6
2018-05-29T07:42:20.272Z,5.0
2018-05-29T07:43:19.883Z,4.9
2018-05-29T07:44:20.594Z,4.7
2018-05-29T07:45:20.005Z,4.5
2018-05-29T07:46:19.810Z,4.5
2018-05-29T07:47:20.377Z,4.4
2018-05-29T07:48:19.859Z,4.2
2018-05-29T07:49:19.904Z,4.6
2018-05-29T07:50:20.939Z,4.0
2018-05-29T07:51:21.592Z,4.5
2018-05-29T07:52:19.887Z,4.3
2018-05-29T07:53:19.910Z,4.4
2018-05-29T07:54:20.174Z,4.4
2018-05-29T07:55:20.591Z,4.3
2018-05-29T07:56:20.057Z,4.3
2018-05-29T07:57:20.842Z,4.1
2018-05-29T07:58:20.225Z,4.4
2018-05-29T07:59:20.462Z,3.9
2018-05-29T08:00:19.958Z,4.1
2018-05-29T08:01:21.259Z,4.0
2018-05-29T08:02:20.049Z,3.8
2018-05-29T08:03:20.135Z,4.1
2018-05-29T08:04:20.145Z,4.2
2018-05-29T08:05:20.173Z,3.7
2018-05-29T08:06:20.077Z,3.8
2018-05-29T08:07:20.009Z,3.7
2018-05-29T08:08:20.028Z,3.7
2018-05-29T08:09:19.976Z,3.6
2018-05-29T08:10:20.572Z,3.6
2018-05-29T08:11:20.009Z,3.3
2018-05-29T08:12:38.352Z,3.6
2018-05-29T08:13:20.091Z,3.8
2018-05-29T08:14:20.159Z,3.6
2018-05-29T08:15:21.702Z,3.4
2018-05-29T08:16:20.127Z,3.6
2018-05-29T08:17:19.885Z,3.5
2018-05-29T08:18:20.035Z,3.8
2018-05-29T08:19:19.937Z,3.4
2018-05-29T08:20:20.022Z,3.4
2018-05-29T08:21:20.032Z,3.2
2018-05-29T08:22:20.146Z,3.4
2018-05-29T08:23:19.922Z,3.5
2018-05-29T08:24:20.537Z,3.3
2018-05-29T08:25:20.881Z,3.5
2018-05-29T08:26:20.381Z,3.3
2018-05-29T08:27:19.996Z,3.8
2018-05-29T08:28:20.041Z,3.3
2018-05-29T08:29:19.981Z,3.3
2018-05-29T08:30:20.681Z,3.1
2018-05-29T08:31:19.886Z,3.2
2018-05-29T08:32:20.349Z,3.1
2018-05-29T08:33:20.518Z,3.1
2018-05-29T08:34:20.315Z,3.3
2018-05-29T08:35:20.206Z,3.4
2018-05-29T08:36:20.587Z,3.4
2018-05-29T08:37:20.364Z,3.2
2018-05-29T08:38:20.170Z,3.2
2018-05-29T08:39:20.101Z,3.4
2018-05-29T08:40:20.459Z,3.4
2018-05-29T08:41:20.078Z,3.5
2018-05-29T08:42:20.390Z,3.6
2018-05-29T08:43:20.212Z,3.4
2018-05-29T08:44:20.123Z,3.4
2018-05-29T08:45:20.601Z,3.1
2018-05-29T08:46:20.859Z,3.6
2018-05-29T08:47:20.089Z,3.6
2018-05-29T08:48:20.068Z,3.5
2018-05-29T08:49:20.303Z,3.2
2018-05-29T08:50:20.420Z,3.5
2018-05-29T08:51:20.020Z,3.6
2018-05-29T08:52:20.067Z,3.4
2018-05-29T08:53:19.950Z,3.3
2018-05-29T08:54:20.251Z,3.6
2018-05-29T08:55:19.969Z,3.3
2018-05-29T08:56:20.034Z,3.2
2018-05-29T08:57:19.987Z,3.5
2018-05-29T08:58:20.139Z,3.5
2018-05-29T08:59:19.961Z,3.7
2018-05-29T09:00:20.062Z,3.5
2018-05-29T09:01:20.055Z,3.4
2018-05-29T09:02:20.656Z,3.5
2018-05-29T09:03:20.003Z,3.3
2018-05-29T09:04:20.468Z,3.3
2018-05-29T09:05:20.171Z,3.6
2018-05-29T09:06:20.100Z,3.9
2018-05-29T09:07:19.979Z,3.4
2018-05-29T09:08:21.462Z,3.7
2018-05-29T09:09:20.302Z,3.8
2018-05-29T09:10:20.202Z,4.1
2018-05-29T09:11:20.033Z,4.0
2018-05-29T09:13:12.440Z,4.3
2018-05-29T09:13:20.053Z,4.6
2018-05-29T09:14:20.132Z,4.6
2018-05-29T09:15:20.148Z,4.3
2018-05-29T09:16:20.988Z,4.4
2018-05-29T09:17:20.037Z,4.1
2018-05-29T09:18:20.143Z,4.5
2018-05-29T09:19:20.059Z,4.2
2018-05-29T09:20:20.106Z,4.4
2018-05-29T09:21:20.323Z,4.4
2018-05-29T09:22:20.076Z,4.6
2018-05-29T09:23:20.837Z,4.8
2018-05-29T09:24:20.208Z,4.8
2018-05-29T09:25:20.051Z,5.1
2018-05-29T09:26:20.960Z,5.2
2018-05-29T09:27:20.415Z,5.7
2018-05-29T09:28:20.512Z,5.6
2018-05-29T09:29:20.291Z,5.8
2018-05-29T09:30:20.069Z,5.4
2018-05-29T09:31:20.465Z,5.2
2018-05-29T09:32:20.897Z,5.7
2018-05-29T09:33:20.393Z,5.5
2018-05-29T09:34:20.442Z,5.8
2018-05-29T09:35:20.797Z,6.6
2018-05-29T09:36:20.101Z,7.6
2018-05-29T09:37:20.103Z,7.1
2018-05-29T09:38:20.315Z,6.9
2018-05-29T09:39:20.581Z,6.8
2018-05-29T09:40:20.212Z,6.6
2018-05-29T09:41:20.058Z,6.4
2018-05-29T09:42:30.497Z,6.6
2018-05-29T09:43:20.162Z,6.9
2018-05-29T09:44:20.117Z,7.3
2018-05-29T09:45:20.089Z,6.8
2018-05-29T09:46:20.365Z,6.9
2018-05-29T09:47:20.386Z,7.5
2018-05-29T09:48:20.151Z,7.0
2018-05-29T09:49:20.956Z,7.7
2018-05-29T09:50:20.104Z,7.2
2018-05-29T09:51:20.060Z,7.1
2018-05-29T09:52:22.897Z,7.0
2018-05-29T09:53:20.470Z,6.7
2018-05-29T09:54:20.408Z,7.1
2018-05-29T09:55:20.126Z,6.6
2018-05-29T09:56:20.101Z,6.7
2018-05-29T09:57:21.042Z,6.9
2018-05-29T09:58:20.373Z,7.3
2018-05-29T09:59:20.030Z,7.5
2018-05-29T10:00:20.114Z,7.8
2018-05-29T10:01:20.122Z,7.6
2018-05-29T10:02:20.788Z,7.1
2018-05-29T10:03:20.056Z,7.2
2018-05-29T10:04:20.595Z,7.1
2018-05-29T10:05:21.644Z,7.3
2018-05-29T10:06:20.209Z,7.8
2018-05-29T10:07:21.026Z,7.6
2018-05-29T10:08:20.422Z,8.3
2018-05-29T10:09:20.399Z,8.0
2018-05-29T10:10:20.517Z,8.0
2018-05-29T10:11:20.219Z,9.0
2018-05-29T10:12:20.093Z,9.4
2018-05-29T10:13:20.179Z,9.0
2018-05-29T10:14:20.483Z,9.0
2018-05-29T10:15:20.099Z,8.9
2018-05-29T10:16:20.121Z,8.5
2018-05-29T10:17:20.347Z,8.4
2018-05-29T10:18:20.145Z,8.1
2018-05-29T10:19:20.495Z,7.9
2018-05-29T10:20:20.439Z,7.6
2018-05-29T10:21:20.823Z,8.1
2018-05-29T10:22:20.092Z,8.0
2018-05-29T10:23:20.533Z,7.8
2018-05-29T10:24:20.200Z,8.0
2018-05-29T10:25:20.426Z,7.5
2018-05-29T10:26:21.033Z,7.5
2018-05-29T10:27:20.144Z,7.8
2018-05-29T10:28:20.093Z,7.6
2018-05-29T10:29:20.168Z,7.8
2018-05-29T10:30:20.194Z,8.0
2018-05-29T10:31:20.111Z,7.9
2018-05-29T10:32:20.833Z,8.1
2018-05-29T10:33:20.105Z,7.5
2018-05-29T10:34:20.152Z,7.9
2018-05-29T10:35:20.126Z,7.2
2018-05-29T10:36:20.102Z,7.6
2018-05-29T10:37:20.469Z,7.5
2018-05-29T10:38:20.138Z,8.3
2018-05-29T10:39:20.167Z,7.8
2018-05-29T10:40:20.127Z,7.9
2018-05-29T10:41:20.368Z,8.1
2018-05-29T10:42:20.270Z,8.1
2018-05-29T10:43:20.403Z,8.1
2018-05-29T10:44:20.120Z,7.7
2018-05-29T10:45:20.168Z,7.9
2018-05-29T10:46:20.116Z,7.9
2018-05-29T10:47:20.161Z,7.7
2018-05-29T10:48:20.180Z,7.8
2018-05-29T10:49:20.481Z,7.5
2018-05-29T10:50:20.198Z,7.7
2018-05-29T10:51:20.235Z,7.3
2018-05-29T10:52:20.355Z,7.2
2018-05-29T10:53:20.274Z,7.5
2018-05-29T10:54:20.280Z,7.4
2018-05-29T10:55:20.126Z,7.3
2018-05-29T10:56:20.149Z,7.7
2018-05-29T10:57:20.176Z,7.7
2018-05-29T10:58:20.172Z,7.7
2018-05-29T10:59:20.522Z,8.1
2018-05-29T11:00:20.185Z,7.6
2018-05-29T11:01:21.179Z,8.3
2018-05-29T11:02:20.441Z,7.8
2018-05-29T11:03:20.195Z,7.4
2018-05-29T11:04:20.203Z,7.1
2018-05-29T11:05:20.237Z,7.0
2018-05-29T11:06:20.415Z,6.4
2018-05-29T11:07:20.514Z,8.2
2018-05-29T11:08:20.248Z,7.6
2018-05-29T11:09:20.511Z,8.0
2018-05-29T11:10:20.460Z,7.7
2018-05-29T11:11:20.153Z,7.6
2018-05-29T11:12:20.218Z,7.9
2018-05-29T11:13:20.186Z,7.5
2018-05-29T11:14:20.308Z,7.7
2018-05-29T11:15:20.245Z,8.0
2018-05-29T11:16:20.263Z,7.1
2018-05-29T11:17:20.238Z,7.5
2018-05-29T11:18:20.517Z,7.4
2018-05-29T11:19:20.517Z,7.5
2018-05-29T11:20:20.273Z,7.5
2018-05-29T11:21:20.217Z,7.4
2018-05-29T11:22:20.237Z,7.1
2018-05-29T11:23:20.177Z,7.6
2018-05-29T11:24:20.269Z,7.4
2018-05-29T11:25:20.259Z,7.4
2018-05-29T11:26:20.554Z,7.2
2018-05-29T11:27:20.368Z,7.5
2018-05-29T11:28:20.961Z,7.0
2018-05-29T11:29:20.522Z,6.8
2018-05-29T11:30:20.841Z,7.1
2018-05-29T11:31:20.352Z,6.7
2018-05-29T11:32:20.581Z,6.5
2018-05-29T11:33:20.307Z,7.2
2018-05-29T11:34:30.573Z,6.9
2018-05-29T11:35:20.311Z,7.6
2018-05-29T11:36:20.392Z,7.9
2018-05-29T11:37:20.353Z,7.8
2018-05-29T11:38:20.622Z,7.8
2018-05-29T11:39:20.546Z,8.4
2018-05-29T11:40:20.537Z,8.9
2018-05-29T11:41:20.215Z,8.5
2018-05-29T11:42:20.302Z,8.3
2018-05-29T11:43:20.232Z,8.4
2018-05-29T11:44:20.260Z,7.7
2018-05-29T11:45:20.345Z,7.9
2018-05-29T11:46:20.413Z,7.6
2018-05-29T11:47:20.295Z,7.7
2018-05-29T11:48:20.698Z,7.5
2018-05-29T11:49:22.113Z,7.9
2018-05-29T11:50:20.371Z,8.6
2018-05-29T11:51:20.402Z,7.9
2018-05-29T11:52:39.136Z,7.9
2018-05-29T11:53:20.466Z,8.0
2018-05-29T11:55:47.899Z,8.1
2018-05-29T11:56:21.157Z,7.6
2018-05-29T11:57:20.685Z,8.1
2018-05-29T11:58:20.872Z,8.2
2018-05-29T11:59:20.581Z,8.2
2018-05-29T12:00:21.050Z,8.4
2018-05-29T12:01:20.749Z,7.6
2018-05-29T12:02:22.116Z,8.3
2018-05-29T12:04:34.373Z,8.2
2018-05-29T12:05:34.213Z,8.2
2018-05-29T12:06:34.756Z,8.8
2018-05-29T12:07:35.116Z,8.8
2018-05-29T12:09:33.639Z,8.9
2018-05-29T12:10:33.851Z,8.6
2018-05-29T12:11:33.777Z,9.1
2018-05-29T12:12:33.768Z,8.6
2018-05-29T12:13:34.335Z,8.6
2018-05-29T12:14:34.093Z,8.1
2018-05-29T12:16:46.727Z,8.6
2018-05-29T12:19:34.043Z,8.7
2018-05-29T12:19:43.547Z,8.4
2018-05-29T12:20:43.859Z,8.2
2018-05-29T12:25:47.269Z,8.2
2018-05-29T12:27:55.982Z,8.1
2018-05-29T12:28:08.819Z,7.8
2018-05-29T12:29:45.854Z,7.6
2018-05-29T12:31:21.107Z,8.8
2018-05-29T12:31:44.464Z,8.6
2018-05-29T12:32:59.779Z,8.8
2018-05-29T12:33:32.598Z,9.0
2018-05-29T12:34:32.588Z,9.7
2018-05-29T12:35:32.564Z,10.6
2018-05-29T12:36:32.601Z,10.7
2018-05-29T12:37:32.638Z,10.4
2018-05-29T12:38:33.204Z,10.8
2018-05-29T12:39:32.956Z,11.4
2018-05-29T12:40:32.654Z,11.2
2018-05-29T12:41:32.680Z,12.1
2018-05-29T12:42:32.669Z,11.5
2018-05-29T12:44:46.014Z,10.7
2018-05-29T12:45:45.822Z,10.6
2018-05-29T12:46:46.982Z,10.4
2018-05-29T12:47:45.820Z,10.5
2018-05-29T12:48:45.907Z,11.0
2018-05-29T12:49:45.877Z,10.5
2018-05-29T12:50:45.923Z,11.1
2018-05-29T12:51:45.809Z,10.7
2018-05-29T12:52:45.837Z,10.2
2018-05-29T12:53:46.186Z,10.6
2018-05-29T12:54:46.837Z,10.5
2018-05-29T12:55:45.852Z,10.5
2018-05-29T12:56:45.963Z,10.1
2018-05-29T12:57:45.877Z,10.5
2018-05-29T12:58:46.217Z,10.3
2018-05-29T12:59:45.891Z,10.0
2018-05-29T13:00:45.863Z,10.0
2018-05-29T13:01:45.805Z,9.8
2018-05-29T13:02:45.939Z,10.0
2018-05-29T13:03:46.114Z,10.3
2018-05-29T13:04:46.911Z,10.8
2018-05-29T13:05:46.128Z,10.6
2018-05-29T13:06:46.265Z,10.7
2018-05-29T13:07:46.187Z,10.7
2018-05-29T13:08:45.988Z,11.0
2018-05-29T13:09:45.850Z,11.1
2018-05-29T13:10:46.594Z,10.5
2018-05-29T13:11:45.823Z,10.6
2018-05-29T13:12:46.011Z,10.4
2018-05-29T13:13:45.939Z,10.7
2018-05-29T13:14:46.084Z,10.6
2018-05-29T13:15:45.853Z,10.3
2018-05-29T13:16:45.998Z,10.2
2018-05-29T13:17:45.942Z,11.1
2018-05-29T13:18:46.115Z,10.6
2018-05-29T13:19:46.794Z,10.5
2018-05-29T13:31:48.988Z,11.1
2018-05-29T13:32:49.331Z,11.0
2018-05-29T13:33:48.725Z,11.4
2018-05-29T13:34:48.825Z,10.8
2018-05-29T13:35:49.026Z,10.8
2018-05-29T13:36:48.833Z,10.9
2018-05-29T13:37:48.797Z,10.8
2018-05-29T13:38:48.862Z,10.6
2018-05-29T13:39:48.806Z,10.4
2018-05-29T13:40:48.839Z,10.2
2018-05-29T13:41:49.388Z,10.1
2018-05-29T13:42:49.273Z,10.2
2018-05-29T13:43:48.672Z,10.1
2018-05-29T13:44:49.168Z,11.0
2018-05-29T13:45:48.785Z,10.5
2018-05-29T13:46:49.073Z,11.0
2018-05-29T13:47:48.702Z,11.1
2018-05-29T13:48:49.159Z,11.8
2018-05-29T13:49:48.899Z,11.8
2018-05-29T13:50:49.205Z,11.6
2018-05-29T13:51:49.303Z,11.5
2018-05-29T13:52:48.859Z,11.2
2018-05-29T13:53:48.899Z,11.9
2018-05-29T13:54:49.354Z,11.6
2018-05-29T13:55:49.036Z,12.0
2018-05-29T13:56:49.592Z,11.6
2018-05-29T13:57:49.572Z,11.6
2018-05-29T13:58:49.059Z,11.9
2018-05-29T13:59:49.025Z,11.2
2018-05-29T14:00:50.377Z,11.5
2018-05-29T14:01:49.843Z,10.9
2018-05-29T14:02:49.196Z,11.9
2018-05-29T14:03:49.126Z,12.0
2018-05-29T14:04:49.262Z,12.9
2018-05-29T14:05:48.938Z,13.0
2018-05-29T14:06:49.189Z,13.2
2018-05-29T14:07:48.915Z,12.6
2018-05-29T14:08:49.099Z,12.8
2018-05-29T14:09:49.740Z,12.8
2018-05-29T14:11:04.822Z,13.4
2018-05-29T14:11:53.771Z,13.2
2018-05-29T14:13:30.084Z,12.8
2018-05-29T14:15:01.052Z,12.7
2018-05-29T14:16:44.161Z,12.2
2018-05-29T14:18:20.435Z,12.1
2018-05-29T14:18:48.735Z,12.4
2018-05-29T14:19:49.396Z,12.9
2018-05-29T14:20:57.304Z,12.8
2018-05-29T14:22:45.540Z,13.2
2018-05-29T14:23:45.669Z,13.4
2018-05-29T14:25:25.809Z,12.9
2018-05-29T14:26:48.813Z,13.0
2018-05-29T14:28:18.315Z,13.2
2018-05-29T14:29:59.939Z,13.2
2018-05-29T14:34:27.579Z,12.2
2018-05-29T14:37:06.781Z,13.0
2018-05-29T14:42:18.583Z,13.3
2018-05-29T14:43:06.505Z,12.0
2018-05-29T14:43:30.090Z,12.4
2018-05-29T14:45:47.682Z,12.3
2018-05-29T14:47:35.827Z,12.7
2018-05-29T14:49:52.178Z,12.3
2018-05-29T14:50:08.343Z,11.9
2018-05-29T14:51:16.501Z,12.0
2018-05-29T14:52:07.665Z,11.1
2018-05-29T14:54:03.338Z,11.2
2018-05-29T14:55:04.191Z,11.8
2018-05-29T14:56:05.000Z,11.4
2018-05-29T14:57:09.009Z,11.5
2018-05-29T14:58:03.124Z,11.1
2018-05-29T14:59:04.403Z,10.7
2018-05-29T15:00:04.018Z,11.1
2018-05-29T15:01:33.813Z,10.8